Time;durP1;ratioP1;P1;durP2;ratioP2;P2;SDS_P1;SDS_P2;PMS_P1;PMS_P2;Temp;Humidity;BMP_temperature;BMP_pressure;BME280_temperature;BME280_humidity;BME280_pressure;Samples;Min_cycle;Max_cycle;Signal;HPM_P1;HPM_P2
2022/06/16 00:01:43;;;;;;;3.53;2.00;;;17.10;99.90;;;;;;5035405;28;20089;-34
2022/06/16 00:04:09;;;;;;;10.35;2.38;;;17.20;99.90;;;;;;5050043;28;20481;-31
2022/06/16 00:06:35;;;;;;;4.38;2.30;;;17.10;99.90;;;;;;5033161;28;20025;-33
2022/06/16 00:09:00;;;;;;;2.05;1.92;;;17.10;99.90;;;;;;5036958;28;20457;-33
2022/06/16 00:11:26;;;;;;;5.10;2.53;;;17.00;99.90;;;;;;5044695;28;20111;-31
2022/06/16 00:13:52;;;;;;;3.90;2.40;;;17.00;99.90;;;;;;5056303;28;20481;-31
2022/06/16 00:16:21;;;;;;;6.95;2.03;;;16.90;99.90;;;;;;5042604;28;20060;-31
2022/06/16 00:18:48;;;;;;;4.47;2.30;;;16.80;99.90;;;;;;5041941;28;20553;-29
2022/06/16 00:21:14;;;;;;;3.50;2.30;;;16.80;99.90;;;;;;5049385;28;20029;-33
2022/06/16 00:23:40;;;;;;;9.27;2.22;;;16.70;99.90;;;;;;5037367;28;20420;-31
2022/06/16 00:26:20;;;;;;;4.28;2.15;;;16.70;99.90;;;;;;5039796;28;20037;-33
2022/06/16 00:28:47;;;;;;;3.88;2.53;;;16.60;99.90;;;;;;5038468;28;20552;-36
2022/06/16 00:31:14;;;;;;;3.13;2.35;;;16.50;99.90;;;;;;5049129;28;20026;-34
2022/06/16 00:33:41;;;;;;;3.58;2.10;;;16.50;99.90;;;;;;5038666;28;20043;-35
2022/06/16 00:36:07;;;;;;;4.55;2.47;;;16.50;99.90;;;;;;5036921;28;20386;-29
2022/06/16 00:38:33;;;;;;;3.90;2.42;;;16.40;99.90;;;;;;5045373;28;20036;-32
2022/06/16 00:40:58;;;;;;;2.13;1.88;;;16.50;99.90;;;;;;5042087;28;20528;-29
2022/06/16 00:43:25;;;;;;;3.75;2.50;;;16.40;99.90;;;;;;5044172;28;20075;-32
2022/06/16 00:45:56;;;;;;;4.32;2.20;;;16.40;99.90;;;;;;5035459;28;20027;-31
2022/06/16 00:48:25;;;;;;;4.47;2.40;;;16.40;99.90;;;;;;5036578;28;20105;-39
2022/06/16 00:51:25;;;;;;;3.30;2.42;;;16.30;99.90;;;;;;5036347;28;20097;-48
2022/06/16 00:53:53;;;;;;;5.93;2.33;;;16.30;99.90;;;;;;5038235;28;20535;-37
2022/06/16 00:56:21;;;;;;;6.43;2.53;;;16.20;99.90;;;;;;5040263;28;20496;-38
2022/06/16 00:58:56;;;;;;;4.43;2.30;;;16.20;99.90;;;;;;5035459;28;20489;-37
2022/06/16 01:01:41;;;;;;;3.40;2.00;;;16.10;99.90;;;;;;5035841;28;20109;-38
2022/06/16 01:06:53;;;;;;;2.70;2.17;;;16.10;99.90;;;;;;5034762;28;20040;-38
2022/06/16 01:09:22;;;;;;;2.85;2.50;;;16.10;99.90;;;;;;5037349;28;20021;-39
2022/06/16 01:15:04;;;;;;;3.60;2.47;;;15.90;99.90;;;;;;5055554;28;20044;-38
2022/06/16 01:17:49;;;;;;;2.75;2.53;;;15.90;99.90;;;;;;5036317;28;20393;-34
2022/06/16 01:20:30;;;;;;;5.45;3.30;;;15.80;99.90;;;;;;5042850;28;20037;-33
2022/06/16 01:23:09;;;;;;;3.78;2.30;;;15.80;99.90;;;;;;5035401;28;20025;-32
2022/06/16 01:26:02;;;;;;;3.85;2.95;;;15.80;99.90;;;;;;5037301;28;20072;-33
2022/06/16 01:28:31;;;;;;;2.85;2.50;;;15.80;99.90;;;;;;5034520;28;20043;-30
2022/06/16 01:31:09;;;;;;;5.15;2.83;;;15.80;99.90;;;;;;5038251;28;20027;-33
2022/06/16 01:33:50;;;;;;;5.63;2.80;;;15.70;99.90;;;;;;5034090;28;20113;-30
2022/06/16 01:36:25;;;;;;;4.10;2.88;;;15.60;99.90;;;;;;5034377;28;20030;-37
2022/06/16 01:39:09;;;;;;;7.65;2.92;;;15.70;99.90;;;;;;5041034;28;20021;-36
2022/06/16 01:42:05;;;;;;;9.07;2.47;;;15.60;99.90;;;;;;5051929;28;20067;-36
2022/06/16 01:44:55;;;;;;;4.45;2.20;;;15.60;99.90;;;;;;5041132;28;20075;-36
2022/06/16 01:47:22;;;;;;;5.72;2.70;;;15.50;99.90;;;;;;5039735;28;20029;-34
2022/06/16 01:49:57;;;;;;;3.53;2.38;;;15.50;99.90;;;;;;5036056;28;20013;-32
2022/06/16 01:52:54;;;;;;;2.53;2.33;;;15.40;99.90;;;;;;5034900;28;20029;-31
2022/06/16 01:55:26;;;;;;;3.22;2.38;;;15.50;99.90;;;;;;5031924;28;20033;-30
2022/06/16 01:58:17;;;;;;;3.75;2.38;;;15.40;99.90;;;;;;5033493;28;20025;-32
2022/06/16 02:00:45;;;;;;;2.17;1.88;;;15.50;99.90;;;;;;5033694;28;20097;-38
2022/06/16 02:03:22;;;;;;;4.25;2.33;;;15.40;99.90;;;;;;5048992;28;20461;-34
2022/06/16 02:06:01;;;;;;;3.40;2.60;;;15.30;99.90;;;;;;5043064;28;20095;-32
2022/06/16 02:08:34;;;;;;;2.83;2.17;;;15.30;99.90;;;;;;5036782;28;20059;-31
2022/06/16 02:11:14;;;;;;;5.22;2.28;;;15.30;99.90;;;;;;5036243;28;20047;-31
2022/06/16 02:13:48;;;;;;;5.20;2.20;;;15.30;99.90;;;;;;5036752;28;20162;-34
2022/06/16 02:16:22;;;;;;;3.10;2.67;;;15.20;99.90;;;;;;5042311;28;20549;-31
2022/06/16 02:18:51;;;;;;;4.40;2.10;;;15.10;99.90;;;;;;5033280;28;20128;-36
2022/06/16 02:21:39;;;;;;;3.00;2.03;;;15.10;99.90;;;;;;5048012;28;20392;-32
2022/06/16 02:24:08;;;;;;;5.95;2.60;;;15.10;99.90;;;;;;5050057;28;20354;-32
2022/06/16 02:26:34;;;;;;;4.95;2.55;;;15.10;99.90;;;;;;5040361;28;20493;-30
2022/06/16 02:29:18;;;;;;;3.13;2.75;;;15.10;99.90;;;;;;5032572;28;20032;-32
2022/06/16 02:32:15;;;;;;;4.95;2.67;;;15.10;99.90;;;;;;5033165;28;20037;-31
2022/06/16 02:35:16;;;;;;;4.45;2.50;;;15.00;99.90;;;;;;5032580;28;20424;-30
2022/06/16 02:38:00;;;;;;;4.00;2.58;;;15.00;99.90;;;;;;5038514;28;20060;-32
2022/06/16 02:40:33;;;;;;;2.50;2.30;;;15.00;99.90;;;;;;5033837;28;20036;-29
2022/06/16 02:43:25;;;;;;;2.92;2.42;;;14.90;99.90;;;;;;5041121;28;20029;-34
2022/06/16 02:46:04;;;;;;;4.68;2.70;;;14.90;99.90;;;;;;5033439;28;20484;-32
2022/06/16 02:48:48;;;;;;;2.80;2.45;;;14.80;99.90;;;;;;5033035;28;20064;-35
2022/06/16 02:51:20;;;;;;;2.28;2.17;;;14.80;99.90;;;;;;5032392;28;20025;-31
2022/06/16 02:54:09;;;;;;;3.60;2.50;;;14.70;99.90;;;;;;5033535;28;20031;-34
2022/06/16 02:56:57;;;;;;;4.95;2.80;;;14.70;99.90;;;;;;5032965;28;20092;-32
2022/06/16 02:59:48;;;;;;;3.17;2.28;;;14.50;99.90;;;;;;5034869;28;20405;-29
2022/06/16 03:02:18;;;;;;;2.83;2.58;;;14.50;99.90;;;;;;5033020;28;20497;-31
2022/06/16 03:04:53;;;;;;;6.68;2.50;;;14.50;99.90;;;;;;5032929;28;20034;-32
2022/06/16 03:07:19;;;;;;;3.33;2.72;;;14.50;99.90;;;;;;5033175;28;20040;-33
2022/06/16 03:09:45;;;;;;;4.55;2.88;;;14.40;99.90;;;;;;5035022;28;20482;-29
2022/06/16 03:12:12;;;;;;;5.68;2.70;;;14.30;99.90;;;;;;5037150;28;20025;-27
2022/06/16 03:14:38;;;;;;;3.67;2.67;;;14.20;99.90;;;;;;5033413;28;20023;-28
2022/06/16 03:17:05;;;;;;;3.10;2.55;;;14.20;99.90;;;;;;5032990;28;20124;-31
2022/06/16 03:19:31;;;;;;;7.70;2.90;;;14.20;99.90;;;;;;5032312;28;20025;-28
2022/06/16 03:21:56;;;;;;;4.47;2.83;;;14.10;99.90;;;;;;5046697;28;20322;-32
2022/06/16 03:24:22;;;;;;;3.38;3.08;;;14.00;99.90;;;;;;5041317;28;20036;-27
2022/06/16 03:26:48;;;;;;;8.18;3.00;;;14.00;99.90;;;;;;5035981;28;20556;-28
2022/06/16 03:29:15;;;;;;;4.35;3.03;;;14.00;99.90;;;;;;5032738;28;20030;-28
2022/06/16 03:31:41;;;;;;;7.20;2.58;;;14.10;99.90;;;;;;5032678;28;20025;-29
2022/06/16 03:34:07;;;;;;;3.60;2.83;;;14.10;99.90;;;;;;5032215;28;20087;-31
2022/06/16 03:36:33;;;;;;;6.07;2.80;;;14.10;99.90;;;;;;5032807;28;20024;-31
2022/06/16 03:39:00;;;;;;;6.65;2.90;;;14.20;99.90;;;;;;5032679;28;20117;-31
2022/06/16 03:41:25;;;;;;;2.75;2.55;;;14.20;99.90;;;;;;5034047;28;20021;-30
2022/06/16 03:43:51;;;;;;;8.02;2.70;;;14.20;99.90;;;;;;5038643;28;20022;-35
2022/06/16 03:46:17;;;;;;;3.20;2.42;;;14.20;99.90;;;;;;5042257;28;20080;-37
2022/06/16 03:48:43;;;;;;;4.80;2.35;;;14.20;99.90;;;;;;5036495;28;20030;-37
2022/06/16 03:51:09;;;;;;;5.20;2.75;;;14.20;99.90;;;;;;5038558;28;20080;-34
2022/06/16 03:53:35;;;;;;;6.10;3.22;;;14.20;99.90;;;;;;5036459;28;20021;-28
2022/06/16 03:56:01;;;;;;;5.93;2.90;;;14.20;99.90;;;;;;5036559;28;20108;-28
2022/06/16 03:58:27;;;;;;;4.22;2.65;;;14.20;99.90;;;;;;5036359;28;20052;-32
2022/06/16 04:00:52;;;;;;;2.80;2.50;;;14.10;99.90;;;;;;5036535;28;20045;-34
2022/06/16 04:06:02;;;;;;;6.50;2.58;;;14.10;99.90;;;;;;5036022;28;20041;-28
2022/06/16 04:08:28;;;;;;;4.38;2.78;;;14.10;99.90;;;;;;5038198;28;20029;-30
2022/06/16 04:10:54;;;;;;;6.00;3.00;;;14.20;99.90;;;;;;5035989;28;20049;-27
2022/06/16 04:13:20;;;;;;;4.50;3.10;;;14.20;99.90;;;;;;5036726;28;20401;-33
2022/06/16 04:15:45;;;;;;;3.60;2.95;;;14.20;99.90;;;;;;5036747;28;20024;-32
2022/06/16 04:18:11;;;;;;;5.05;2.85;;;14.20;99.90;;;;;;5035485;28;20053;-29
2022/06/16 04:20:38;;;;;;;5.68;3.30;;;14.20;99.90;;;;;;5036675;28;20066;-32
2022/06/16 04:23:05;;;;;;;3.13;2.78;;;14.20;99.90;;;;;;5046802;28;20029;-37
2022/06/16 04:25:32;;;;;;;;;;;14.20;99.90;;;;;;5044227;28;20078;-37
2022/06/16 04:28:03;;;;;;;5.50;2.80;;;14.20;99.90;;;;;;5034316;28;19960;-64
2022/06/16 04:30:29;;;;;;;3.13;2.33;;;14.10;99.90;;;;;;5035756;28;20051;-60
2022/06/16 04:32:59;;;;;;;4.82;3.25;;;14.10;99.90;;;;;;5036059;28;20080;-39
2022/06/16 04:35:26;;;;;;;3.85;3.33;;;14.10;99.90;;;;;;5035656;28;20026;-39
2022/06/16 04:37:53;;;;;;;7.55;2.83;;;14.10;99.90;;;;;;5036328;28;20079;-36
2022/06/16 04:40:19;;;;;;;3.30;2.38;;;14.20;99.90;;;;;;5036156;28;20017;-37
2022/06/16 04:42:44;;;;;;;8.93;3.17;;;14.20;99.90;;;;;;5035429;28;20516;-41
2022/06/16 04:45:11;;;;;;;5.30;2.63;;;14.20;99.90;;;;;;5035491;28;20116;-49
2022/06/16 04:47:40;;;;;;;10.13;2.75;;;14.30;99.90;;;;;;5035159;28;20029;-34
2022/06/16 04:50:07;;;;;;;2.97;2.50;;;14.30;99.90;;;;;;5036090;28;20036;-33
2022/06/16 04:52:33;;;;;;;2.92;2.63;;;14.40;99.90;;;;;;5034985;28;20100;-32
2022/06/16 04:54:59;;;;;;;8.70;2.55;;;14.40;99.90;;;;;;5034763;28;20386;-31
2022/06/16 04:57:24;;;;;;;5.90;2.53;;;14.50;99.90;;;;;;5035155;28;20029;-32
2022/06/16 04:59:50;;;;;;;5.28;2.80;;;14.50;99.90;;;;;;5039067;28;20030;-34
2022/06/16 05:02:16;;;;;;;5.15;2.80;;;14.60;99.90;;;;;;5054794;28;20029;-34
2022/06/16 05:04:44;;;;;;;6.50;2.90;;;14.60;99.90;;;;;;5049444;28;20463;-32
2022/06/16 05:07:10;;;;;;;8.85;2.47;;;14.60;99.90;;;;;;5035634;28;20028;-31
2022/06/16 05:09:36;;;;;;;13.45;2.38;;;14.70;99.90;;;;;;5041067;28;20465;-30
2022/06/16 05:12:01;;;;;;;4.15;2.58;;;14.70;99.90;;;;;;5035169;28;20025;-31
2022/06/16 05:14:27;;;;;;;4.65;2.67;;;14.80;99.90;;;;;;5042430;28;20028;-30
2022/06/16 05:16:53;;;;;;;5.78;2.90;;;14.70;99.90;;;;;;5042157;28;20044;-34
2022/06/16 05:19:18;;;;;;;4.72;2.50;;;14.80;99.90;;;;;;5038551;28;20116;-35
2022/06/16 05:21:44;;;;;;;7.00;2.40;;;14.90;99.90;;;;;;5039679;28;20086;-30
2022/06/16 05:24:09;;;;;;;3.83;2.40;;;14.90;99.90;;;;;;5045868;28;20161;-32
2022/06/16 05:26:35;;;;;;;5.03;2.75;;;14.90;99.90;;;;;;5047999;28;20077;-35
2022/06/16 05:29:01;;;;;;;3.75;2.63;;;15.00;99.90;;;;;;5034791;28;20025;-35
2022/06/16 05:31:26;;;;;;;4.20;2.45;;;15.10;99.90;;;;;;5034831;28;20489;-30
2022/06/16 05:33:52;;;;;;;3.40;2.28;;;15.20;99.90;;;;;;5034825;28;20025;-36
2022/06/16 05:36:18;;;;;;;4.57;2.55;;;15.30;99.90;;;;;;5034687;28;20017;-30
2022/06/16 05:38:44;;;;;;;5.55;2.53;;;15.50;99.90;;;;;;5036345;28;20075;-29
2022/06/16 05:41:14;;;;;;;4.63;2.10;;;15.50;99.90;;;;;;5033159;28;20040;-34
2022/06/16 05:43:41;;;;;;;6.80;2.33;;;15.60;99.90;;;;;;5034322;28;20112;-32
2022/06/16 05:46:13;;;;;;;3.13;2.10;;;15.70;99.90;;;;;;5036264;28;20033;-29
2022/06/16 05:48:39;;;;;;;3.25;1.85;;;15.70;99.90;;;;;;5034260;28;20803;-29
2022/06/16 05:51:09;;;;;;;3.65;1.98;;;15.70;99.90;;;;;;5033780;28;20067;-31
2022/06/16 05:53:36;;;;;;;4.03;2.00;;;15.80;99.90;;;;;;5034469;28;20025;-33
2022/06/16 05:56:02;;;;;;;7.88;1.73;;;15.90;99.90;;;;;;5033329;28;20029;-33
2022/06/16 05:58:28;;;;;;;2.50;1.65;;;15.90;99.90;;;;;;5034249;28;20108;-31
2022/06/16 06:00:54;;;;;;;7.10;2.63;;;16.00;99.90;;;;;;5034453;28;20511;-29
2022/06/16 06:03:20;;;;;;;3.33;2.08;;;16.00;99.90;;;;;;5032796;28;20096;-36
2022/06/16 06:05:46;;;;;;;4.50;1.95;;;16.10;99.90;;;;;;5042649;28;20112;-45
2022/06/16 06:16:26;;;;;;;3.00;1.70;;;17.60;99.90;;;;;;5039352;28;20032;-32
2022/06/16 06:18:57;;;;;;;3.42;1.60;;;18.60;99.50;;;;;;5045299;28;20091;-29
2022/06/16 06:24:08;;;;;;;4.68;1.65;;;22.30;96.30;;;;;;5046847;28;20132;-32
2022/06/16 06:26:34;;;;;;;2.03;1.35;;;24.60;94.40;;;;;;5051153;28;20132;-34
2022/06/16 06:29:00;;;;;;;1.95;1.10;;;26.20;92.30;;;;;;5052377;28;20025;-38
2022/06/16 06:31:25;;;;;;;1.48;1.30;;;27.30;91.40;;;;;;5036828;28;20155;-40
2022/06/16 06:33:51;;;;;;;3.90;1.50;;;28.20;90.00;;;;;;5046173;28;20026;-38
2022/06/16 06:36:16;;;;;;;4.40;1.15;;;28.50;86.80;;;;;;5051317;28;20035;-37
2022/06/16 06:38:42;;;;;;;6.32;1.00;;;29.00;86.60;;;;;;5051875;28;20029;-38
2022/06/16 06:41:08;;;;;;;2.03;1.20;;;28.90;86.30;;;;;;5051547;28;20029;-38
2022/06/16 06:43:33;;;;;;;4.10;1.50;;;29.10;85.50;;;;;;5043102;28;20090;-37
2022/06/16 06:45:59;;;;;;;2.60;1.58;;;28.90;85.00;;;;;;5039232;28;20025;-37
2022/06/16 06:48:25;;;;;;;5.13;1.10;;;28.50;84.80;;;;;;5051455;28;20051;-38
2022/06/16 06:50:51;;;;;;;4.45;1.20;;;27.80;84.20;;;;;;5039957;28;20100;-38
2022/06/16 06:53:17;;;;;;;1.88;1.20;;;26.30;86.50;;;;;;5033332;28;20021;-37
2022/06/16 06:55:46;;;;;;;3.55;1.20;;;24.90;88.90;;;;;;5032944;28;20025;-38
2022/06/16 06:58:17;;;;;;;7.80;1.40;;;23.50;90.30;;;;;;5039785;28;20031;-38
2022/06/16 07:00:43;;;;;;;2.50;0.85;;;22.50;90.90;;;;;;5050475;28;20029;-38
2022/06/16 07:03:10;;;;;;;2.92;1.15;;;21.70;91.40;;;;;;5041872;28;20441;-37
2022/06/16 07:05:36;;;;;;;9.65;1.73;;;21.70;91.90;;;;;;5044030;28;20504;-37
2022/06/16 07:08:03;;;;;;;2.55;0.70;;;22.40;91.80;;;;;;5048688;28;20177;-55
2022/06/16 07:10:28;;;;;;;1.10;0.90;;;23.00;91.70;;;;;;5018013;28;20116;-35
2022/06/16 07:12:54;;;;;;;1.42;1.00;;;23.30;90.60;;;;;;5031430;28;20466;-37
2022/06/16 07:15:20;;;;;;;1.42;0.95;;;24.30;90.10;;;;;;5035448;28;20500;-37
2022/06/16 07:17:46;;;;;;;3.50;1.05;;;25.60;89.60;;;;;;5050919;28;20029;-36
2022/06/16 07:20:13;;;;;;;1.10;1.00;;;26.90;87.40;;;;;;5037173;28;20438;-32
2022/06/16 07:22:39;;;;;;;2.70;1.00;;;27.90;86.20;;;;;;5033814;28;20029;-28
2022/06/16 07:25:05;;;;;;;2.85;0.95;;;28.50;84.40;;;;;;5035793;28;20459;-35
2022/06/16 07:27:30;;;;;;;0.98;0.80;;;28.70;85.10;;;;;;5033997;28;20087;-31
2022/06/16 07:29:56;;;;;;;2.13;0.95;;;29.00;84.90;;;;;;5033031;28;20436;-39
2022/06/16 07:32:22;;;;;;;4.25;1.23;;;29.00;83.60;;;;;;5034638;28;20121;-32
2022/06/16 07:34:48;;;;;;;1.85;0.85;;;29.10;84.20;;;;;;5052920;28;20036;-28
2022/06/16 07:37:14;;;;;;;2.83;1.20;;;29.10;84.00;;;;;;5034047;28;20044;-34
2022/06/16 07:39:40;;;;;;;3.57;1.20;;;28.90;84.50;;;;;;5031528;28;20505;-36
2022/06/16 07:42:08;;;;;;;2.17;1.00;;;28.60;83.00;;;;;;5042029;28;20067;-31
2022/06/16 07:44:34;;;;;;;2.45;0.85;;;28.40;83.80;;;;;;5037916;28;20040;-31
2022/06/16 07:47:00;;;;;;;1.80;1.00;;;28.00;84.20;;;;;;5032472;28;20034;-33
2022/06/16 07:49:27;;;;;;;2.58;1.38;;;27.20;84.90;;;;;;5032753;28;20033;-30
2022/06/16 07:51:55;;;;;;;2.90;0.75;;;26.40;85.70;;;;;;5038436;28;20417;-31
2022/06/16 07:54:21;;;;;;;1.55;0.80;;;26.10;85.40;;;;;;5033059;28;20022;-31
2022/06/16 07:56:47;;;;;;;2.92;1.20;;;25.60;87.50;;;;;;5032773;28;20486;-31
2022/06/16 07:59:13;;;;;;;2.38;1.17;;;25.50;85.20;;;;;;5033312;28;20576;-32
2022/06/16 08:01:39;;;;;;;2.95;1.40;;;25.60;86.10;;;;;;5032616;28;20078;-33
2022/06/16 08:04:05;;;;;;;1.33;1.20;;;25.70;85.80;;;;;;5032551;28;20119;-31
2022/06/16 08:06:34;;;;;;;1.73;1.38;;;25.70;86.40;;;;;;5032759;28;20021;-36
2022/06/16 08:09:00;;;;;;;1.88;1.05;;;25.50;85.70;;;;;;5032595;28;20037;-39
2022/06/16 08:14:09;;;;;;;1.83;1.23;;;25.10;86.00;;;;;;5048894;28;20114;-32
2022/06/16 08:16:35;;;;;;;1.27;0.90;;;24.30;88.00;;;;;;5050430;28;20477;-33
2022/06/16 08:19:02;;;;;;;3.83;1.08;;;24.90;87.60;;;;;;5050182;28;20465;-31
2022/06/16 08:21:28;;;;;;;3.40;1.30;;;25.20;88.50;;;;;;5033043;28;20478;-31
2022/06/16 08:23:54;;;;;;;2.30;1.50;;;25.50;87.30;;;;;;5032521;28;20109;-31
2022/06/16 08:26:20;;;;;;;1.52;0.90;;;25.70;85.80;;;;;;5031985;28;20049;-39
2022/06/16 08:28:47;;;;;;;5.78;1.55;;;25.90;86.60;;;;;;5033169;28;20099;-32
2022/06/16 08:31:13;;;;;;;1.65;1.17;;;26.20;84.70;;;;;;5036174;28;20026;-37
2022/06/16 08:33:40;;;;;;;5.47;1.25;;;26.40;85.80;;;;;;5039377;28;20021;-30
2022/06/16 08:36:06;;;;;;;8.13;1.80;;;26.70;86.10;;;;;;5054603;28;20033;-34
2022/06/16 08:38:32;;;;;;;3.33;1.42;;;26.80;86.70;;;;;;5056185;28;20394;-33
2022/06/16 08:41:12;;;;;;;2.42;1.58;;;27.00;85.30;;;;;;5048557;28;20033;-37
2022/06/16 08:44:06;;;;;;;2.25;1.23;;;26.80;85.30;;;;;;5049649;28;20032;-38
2022/06/16 08:46:39;;;;;;;1.83;1.45;;;27.00;85.70;;;;;;5050132;28;20108;-33
2022/06/16 08:49:28;;;;;;;1.60;1.23;;;27.10;85.70;;;;;;5055640;28;20033;-34
2022/06/16 08:52:13;;;;;;;2.50;1.80;;;27.00;86.10;;;;;;5053665;28;20032;-33
2022/06/16 08:54:57;;;;;;;2.90;1.35;;;27.60;85.40;;;;;;5055587;28;20021;-30
2022/06/16 08:57:42;;;;;;;3.10;2.08;;;27.40;85.40;;;;;;5055446;28;20047;-37
2022/06/16 09:00:16;;;;;;;1.58;1.23;;;27.50;84.30;;;;;;5055433;28;20032;-30
2022/06/16 09:03:04;;;;;;;2.00;1.40;;;27.50;83.20;;;;;;5053412;28;20036;-29
2022/06/16 09:06:07;;;;;;;5.95;1.20;;;26.70;87.30;;;;;;5053976;28;20036;-30
2022/06/16 09:08:56;;;;;;;3.15;1.15;;;26.10;88.10;;;;;;5042579;28;20112;-33
2022/06/16 09:11:35;;;;;;;2.22;1.20;;;26.60;86.20;;;;;;5044389;28;20388;-37
2022/06/16 09:14:14;;;;;;;2.40;1.40;;;26.60;86.20;;;;;;5035263;28;20033;-34
2022/06/16 09:17:08;;;;;;;2.42;1.40;;;26.50;85.70;;;;;;5047344;28;20135;-35
2022/06/16 09:19:54;;;;;;;2.10;1.33;;;26.90;85.60;;;;;;5046248;28;20041;-38
2022/06/16 09:22:50;;;;;;;2.78;1.40;;;27.20;85.80;;;;;;5035272;28;20501;-40
2022/06/16 09:25:24;;;;;;;3.55;1.50;;;27.40;84.30;;;;;;5035917;28;20034;-57
2022/06/16 09:28:04;;;;;;;1.63;1.33;;;27.30;84.50;;;;;;5041564;28;20557;-59
2022/06/16 09:30:37;;;;;;;1.88;1.25;;;26.70;85.40;;;;;;5046284;28;20025;-39
2022/06/16 09:33:13;;;;;;;1.85;1.30;;;26.40;87.10;;;;;;5037719;28;20485;-40
2022/06/16 09:36:03;;;;;;;2.07;1.23;;;26.20;87.00;;;;;;5041038;28;20104;-40
2022/06/16 09:38:36;;;;;;;7.43;1.80;;;26.10;89.00;;;;;;5033159;28;20025;-39
2022/06/16 09:43:55;;;;;;;2.75;1.50;;;26.20;87.00;;;;;;5035820;28;20044;-39
2022/06/16 09:46:32;;;;;;;2.13;1.33;;;25.90;87.70;;;;;;5036016;28;20389;-37
2022/06/16 09:49:05;;;;;;;1.55;1.17;;;25.50;89.60;;;;;;5039428;28;20044;-39
2022/06/16 09:51:41;;;;;;;4.25;1.60;;;25.50;90.10;;;;;;5043218;28;20074;-40
2022/06/16 09:54:12;;;;;;;1.60;1.03;;;25.60;89.60;;;;;;5039397;28;20535;-33
2022/06/16 09:56:56;;;;;;;4.30;1.58;;;25.90;88.70;;;;;;5034116;28;20100;-34
2022/06/16 09:59:31;;;;;;;3.10;1.45;;;26.10;88.80;;;;;;5037881;28;20021;-40
2022/06/16 10:02:05;;;;;;;1.83;1.40;;;26.10;89.00;;;;;;5033271;28;20021;-45
2022/06/16 10:04:31;;;;;;;1.33;1.13;;;26.30;89.00;;;;;;5037961;28;20021;-39
2022/06/16 10:07:30;;;;;;;5.15;1.95;;;26.90;87.60;;;;;;5034163;28;20128;-38
2022/06/16 10:10:14;;;;;;;2.40;1.42;;;27.90;86.60;;;;;;5034238;28;20394;-38
2022/06/16 10:13:16;;;;;;;3.08;1.33;;;28.40;86.10;;;;;;5034143;28;20381;-41
2022/06/16 10:15:52;;;;;;;5.07;1.58;;;28.50;85.70;;;;;;5024641;28;20471;-38
2022/06/16 10:18:18;;;;;;;1.45;1.15;;;28.10;84.90;;;;;;5039019;28;20038;-39
2022/06/16 10:20:45;;;;;;;4.50;1.42;;;27.60;86.10;;;;;;5044203;28;20648;-39
2022/06/16 10:23:24;;;;;;;1.52;1.42;;;27.30;86.90;;;;;;5039558;28;20036;-41
2022/06/16 10:25:55;;;;;;;2.70;1.40;;;27.00;86.40;;;;;;5051475;28;20029;-40
2022/06/16 10:28:28;;;;;;;1.58;1.48;;;27.20;87.60;;;;;;5049911;28;20104;-40
2022/06/16 10:30:54;;;;;;;3.25;1.85;;;27.10;87.50;;;;;;5033591;28;20041;-37
2022/06/16 10:33:23;;;;;;;4.72;1.30;;;26.70;87.40;;;;;;5042068;28;20500;-40
2022/06/16 10:36:07;;;;;;;6.13;1.30;;;26.70;88.00;;;;;;5039540;28;20036;-41
2022/06/16 10:38:37;;;;;;;3.83;1.75;;;26.80;86.70;;;;;;5034768;28;20035;-44
2022/06/16 10:41:29;;;;;;;2.72;1.60;;;26.30;87.90;;;;;;5033629;28;20426;-39
2022/06/16 10:43:56;;;;;;;1.63;1.40;;;25.70;90.30;;;;;;5033912;28;20029;-39
2022/06/16 10:46:28;;;;;;;4.45;1.58;;;25.40;89.90;;;;;;5033636;28;20029;-39
2022/06/16 10:48:56;;;;;;;3.85;1.27;;;25.90;90.00;;;;;;5033589;28;20033;-30
2022/06/16 10:51:25;;;;;;;4.53;1.60;;;26.60;88.70;;;;;;5033100;28;20033;-30
2022/06/16 10:53:59;;;;;;;3.70;1.50;;;26.80;87.60;;;;;;5047816;28;20485;-35
2022/06/16 10:56:27;;;;;;;2.63;1.48;;;26.60;87.90;;;;;;5053256;28;20028;-33
2022/06/16 10:59:00;;;;;;;;;;;26.10;88.50;;;;;;5053693;28;20025;-39
2022/06/16 11:01:41;;;;;;;1.42;1.33;;;25.90;89.30;;;;;;5052220;28;19909;-39
2022/06/16 11:04:19;;;;;;;4.65;2.15;;;25.70;89.70;;;;;;5053539;28;20362;-40
2022/06/16 11:06:52;;;;;;;5.55;1.63;;;25.50;90.50;;;;;;5053390;28;20393;-39
2022/06/16 11:09:21;;;;;;;4.85;1.88;;;25.20;90.20;;;;;;5051441;28;20467;-37
2022/06/16 11:12:12;;;;;;;1.73;1.23;;;25.10;90.40;;;;;;5051163;28;20043;-44
2022/06/16 11:14:52;;;;;;;4.30;1.58;;;24.90;92.20;;;;;;5051446;28;20493;-38
2022/06/16 11:17:27;;;;;;;6.00;1.65;;;24.80;91.20;;;;;;5053206;28;20029;-49
2022/06/16 11:20:14;;;;;;;5.45;1.77;;;24.70;91.70;;;;;;5051993;28;20115;-37
2022/06/16 11:22:43;;;;;;;2.40;1.60;;;24.60;91.00;;;;;;5053079;28;20070;-39
2022/06/16 11:25:23;;;;;;;2.30;1.42;;;24.90;91.00;;;;;;5053047;28;20397;-39
2022/06/16 11:27:57;;;;;;;2.25;1.77;;;25.20;91.20;;;;;;5052873;28;20072;-39
2022/06/16 11:30:36;;;;;;;4.68;1.40;;;25.30;90.50;;;;;;5051165;28;20033;-39
2022/06/16 11:33:04;;;;;;;2.67;1.08;;;25.30;90.70;;;;;;5053284;28;20495;-39
2022/06/16 11:35:49;;;;;;;3.50;1.50;;;25.40;90.90;;;;;;5051448;28;20037;-39
2022/06/16 11:38:30;;;;;;;5.50;1.60;;;25.60;90.20;;;;;;5052971;28;20033;-38
2022/06/16 11:41:01;;;;;;;1.90;1.50;;;25.50;90.10;;;;;;5039303;28;20025;-38
2022/06/16 11:44:00;;;;;;;5.40;1.50;;;25.60;90.40;;;;;;5049313;28;20519;-41
2022/06/16 11:46:40;;;;;;;5.35;1.58;;;25.80;90.10;;;;;;5051175;28;20108;-40
2022/06/16 11:49:18;;;;;;;2.50;1.90;;;25.90;89.30;;;;;;5051689;28;20033;-39
2022/06/16 11:51:58;;;;;;;5.00;2.28;;;26.00;90.30;;;;;;5052373;28;20052;-33
2022/06/16 11:55:02;;;;;;;5.65;1.20;;;25.70;89.30;;;;;;5051458;28;20033;-31
2022/06/16 11:57:41;;;;;;;5.28;2.25;;;25.50;89.50;;;;;;5052600;28;20461;-32
2022/06/16 12:00:15;;;;;;;1.50;1.38;;;25.70;90.20;;;;;;5052736;28;20036;-40
2022/06/16 12:03:00;;;;;;;1.38;1.20;;;25.90;89.20;;;;;;5052804;28;20371;-37
2022/06/16 12:05:41;;;;;;;2.00;1.70;;;26.10;89.60;;;;;;5055428;28;20033;-37
2022/06/16 12:08:06;;;;;;;1.48;1.38;;;26.20;89.00;;;;;;5056380;28;20484;-33
2022/06/16 12:11:04;;;;;;;1.63;1.40;;;25.90;89.20;;;;;;5056207;28;20040;-32
2022/06/16 12:13:41;;;;;;;4.90;1.30;;;25.90;89.70;;;;;;5054195;28;20079;-40
2022/06/16 12:16:31;;;;;;;2.60;1.40;;;26.10;89.90;;;;;;5055686;28;20442;-35
2022/06/16 12:19:34;;;;;;;3.42;1.42;;;26.10;90.10;;;;;;5036267;28;20490;-32
2022/06/16 12:22:25;;;;;;;2.65;1.48;;;26.20;87.20;;;;;;5034897;28;20371;-35
2022/06/16 12:25:11;;;;;;;4.80;1.70;;;26.30;89.30;;;;;;5036309;28;20424;-32
2022/06/16 12:27:42;;;;;;;5.53;1.50;;;26.50;89.20;;;;;;5035987;28;20091;-37
2022/06/16 12:30:42;;;;;;;3.65;1.35;;;26.60;89.00;;;;;;5042555;28;20083;-33
2022/06/16 12:33:36;;;;;;;2.50;1.27;;;26.50;90.60;;;;;;5052947;28;20509;-30
2022/06/16 12:36:22;;;;;;;3.17;1.58;;;26.20;89.10;;;;;;5056026;28;20025;-32
2022/06/16 12:38:54;;;;;;;2.67;0.90;;;26.20;89.00;;;;;;5055948;28;20036;-31
2022/06/16 12:41:25;;;;;;;1.83;1.67;;;26.10;89.10;;;;;;5051904;28;20469;-30
2022/06/16 12:44:17;;;;;;;3.08;1.70;;;26.10;88.70;;;;;;5056162;28;20477;-32
2022/06/16 12:46:57;;;;;;;2.42;1.20;;;26.40;89.50;;;;;;5052707;28;20472;-33
2022/06/16 12:49:28;;;;;;;2.70;1.25;;;26.10;90.30;;;;;;5055760;28;20040;-29
2022/06/16 12:52:03;;;;;;;3.67;1.50;;;26.10;90.40;;;;;;5055708;28;20107;-39
2022/06/16 12:54:52;;;;;;;3.70;1.60;;;26.00;91.40;;;;;;5053461;28;20068;-39
2022/06/16 12:57:23;;;;;;;1.63;1.27;;;25.90;90.70;;;;;;5047352;28;20048;-43
2022/06/16 13:00:00;;;;;;;2.42;1.20;;;26.10;90.40;;;;;;5035897;28;20466;-30
2022/06/16 13:02:28;;;;;;;;;;;26.10;90.50;;;;;;5045152;28;20054;-34
2022/06/16 13:04:57;;;;;;;2.72;1.45;;;26.30;90.80;;;;;;5055423;28;19904;-35
2022/06/16 13:07:27;;;;;;;2.97;1.40;;;26.40;90.70;;;;;;5052714;28;20060;-32
2022/06/16 13:09:53;;;;;;;2.67;1.50;;;26.30;90.30;;;;;;5055245;28;20100;-37
2022/06/16 13:12:30;;;;;;;6.60;1.73;;;26.20;90.40;;;;;;5054122;28;20482;-33
2022/06/16 13:15:07;;;;;;;3.85;1.50;;;25.90;91.10;;;;;;5053897;28;20060;-33
2022/06/16 13:17:45;;;;;;;7.30;2.42;;;25.70;90.80;;;;;;5055244;28;20542;-34
2022/06/16 13:20:15;;;;;;;3.85;1.48;;;25.60;90.80;;;;;;5043021;28;20021;-29
2022/06/16 13:23:05;;;;;;;1.40;1.30;;;25.50;90.70;;;;;;5038856;28;20032;-33
2022/06/16 13:25:42;;;;;;;5.40;1.88;;;25.80;90.50;;;;;;5052039;28;20040;-35
2022/06/16 13:28:26;;;;;;;5.65;1.60;;;25.70;90.30;;;;;;5054888;28;20120;-31
2022/06/16 13:31:22;;;;;;;5.20;2.25;;;25.60;91.40;;;;;;5045255;28;20091;-39
2022/06/16 13:33:53;;;;;;;1.80;1.58;;;25.60;91.30;;;;;;5034454;28;20044;-45
2022/06/16 13:36:30;;;;;;;2.20;1.50;;;25.70;91.90;;;;;;5034986;28;20067;-57
2022/06/16 13:38:57;;;;;;;1.88;1.45;;;25.90;91.30;;;;;;5034873;28;20025;-49
2022/06/16 13:41:42;;;;;;;4.60;1.55;;;26.20;91.60;;;;;;5044893;28;20039;-40
2022/06/16 13:44:15;;;;;;;3.65;1.58;;;26.50;91.20;;;;;;5054499;28;20060;-43